createdAt,value
2022-09-12T00:01:26.809Z,10.75
2022-09-12T00:05:01.792Z,10.80
2022-09-12T00:08:39.204Z,10.80
2022-09-12T00:12:15.668Z,10.82
2022-09-12T00:15:52.382Z,10.78
2022-09-12T00:19:47.905Z,10.76
2022-09-12T00:23:09.984Z,10.76
2022-09-12T00:26:47.006Z,10.76
2022-09-12T00:30:43.954Z,10.76
2022-09-12T00:34:05.561Z,10.77
2022-09-12T00:37:42.361Z,10.76
2022-09-12T00:41:24.258Z,10.77
2022-09-12T00:45:26.601Z,10.77
2022-09-12T00:49:01.751Z,10.75
2022-09-12T00:52:43.506Z,10.71
2022-09-12T00:56:07.376Z,10.67
2022-09-12T01:00:04.567Z,10.66
2022-09-12T01:03:46.816Z,10.65
2022-09-12T01:07:08.953Z,10.65
2022-09-12T01:10:45.774Z,10.68
2022-09-12T01:14:41.241Z,10.68
2022-09-12T01:18:41.584Z,10.65
2022-09-12T01:23:13.583Z,10.64
2022-09-12T01:27:14.637Z,10.61
2022-09-12T01:31:05.902Z,10.58
2022-09-12T01:34:46.876Z,10.53
2022-09-12T01:38:25.522Z,10.54
2022-09-12T01:42:00.281Z,10.55
2022-09-12T01:45:59.824Z,10.52
2022-09-12T01:49:36.849Z,10.49
2022-09-12T01:53:43.454Z,10.46
2022-09-12T01:57:12.990Z,10.41
2022-09-12T02:00:50.195Z,10.38
2022-09-12T02:04:22.830Z,10.33
2022-09-12T02:08:06.820Z,10.30
2022-09-12T02:11:36.618Z,10.28
2022-09-12T02:15:12.410Z,10.22
2022-09-12T02:18:50.769Z,10.17
2022-09-12T02:22:43.491Z,10.13
2022-09-12T02:26:30.033Z,10.08
2022-09-12T02:29:53.565Z,10.02
2022-09-12T02:33:46.280Z,9.96
2022-09-12T02:37:32.514Z,9.88
2022-09-12T02:41:18.076Z,9.86
2022-09-12T02:44:58.708Z,9.82
2022-09-12T02:48:42.890Z,9.81
2022-09-12T02:52:24.247Z,9.74
2022-09-12T02:55:46.043Z,9.67
2022-09-12T02:59:24.971Z,9.58
2022-09-12T03:03:27.016Z,9.51
2022-09-12T03:06:58.732Z,9.46
2022-09-12T03:11:02.820Z,9.43
2022-09-12T03:14:53.214Z,9.43
2022-09-12T03:18:29.729Z,9.43
2022-09-12T03:22:04.726Z,9.40
2022-09-12T03:25:58.437Z,9.35
2022-09-12T03:29:21.693Z,9.28
2022-09-12T03:33:18.957Z,9.20
2022-09-12T03:36:41.624Z,9.17
2022-09-12T03:40:17.934Z,9.16
2022-09-12T03:44:13.113Z,9.16
2022-09-12T03:47:54.499Z,9.15
2022-09-12T03:51:15.930Z,9.10
2022-09-12T03:54:52.707Z,9.04
2022-09-12T03:58:30.947Z,9.02
2022-09-12T04:02:25.232Z,9.04
2022-09-12T04:05:47.539Z,9.10
2022-09-12T04:09:23.931Z,9.11
2022-09-12T04:13:18.927Z,9.12
2022-09-12T04:17:00.610Z,9.15
2022-09-12T04:20:43.319Z,9.15
2022-09-12T04:24:05.145Z,9.13
2022-09-12T04:27:41.706Z,9.09
2022-09-12T04:31:20.766Z,9.07
2022-09-12T04:35:14.079Z,9.05
2022-09-12T04:38:36.234Z,9.03
2022-09-12T04:42:12.590Z,9.06
2022-09-12T04:46:11.446Z,9.07
2022-09-12T04:49:52.142Z,9.08
2022-09-12T04:53:14.014Z,9.09
2022-09-12T04:56:52.289Z,9.09
2022-09-12T05:00:46.446Z,9.15
2022-09-12T05:04:10.854Z,9.20
2022-09-12T05:07:45.083Z,9.23
2022-09-12T05:11:41.150Z,9.27
2022-09-12T05:15:10.173Z,9.35
2022-09-12T05:18:48.940Z,9.38
2022-09-12T05:22:42.495Z,9.38
2022-09-12T05:26:06.351Z,9.38
2022-09-12T05:29:58.451Z,9.42
2022-09-12T05:33:24.922Z,9.45
2022-09-12T05:37:16.616Z,9.48
2022-09-12T05:40:38.372Z,9.49
2022-09-12T05:44:15.552Z,9.51
2022-09-12T05:47:54.270Z,9.50
2022-09-12T05:51:32.967Z,9.50
2022-09-12T05:55:06.011Z,9.53
2022-09-12T05:58:44.777Z,9.56
2022-09-12T06:02:19.171Z,9.61
2022-09-12T06:06:18.050Z,9.64
2022-09-12T06:09:39.929Z,9.71
2022-09-12T06:13:16.648Z,9.75
2022-09-12T06:17:12.182Z,9.78
2022-09-12T06:20:37.025Z,9.84
2022-09-12T06:24:30.383Z,9.88
2022-09-12T06:28:10.688Z,9.99
2022-09-12T06:31:34.727Z,10.11
2022-09-12T06:35:28.636Z,10.21
2022-09-12T06:39:12.653Z,10.30
2022-09-12T06:42:34.621Z,10.40
2022-09-12T06:46:12.380Z,10.53
2022-09-12T06:49:48.304Z,10.65
2022-09-12T06:53:45.242Z,10.80
2022-09-12T06:57:08.418Z,10.96
2022-09-12T07:00:44.102Z,11.06
2022-09-12T07:04:20.975Z,11.17
2022-09-12T07:07:59.234Z,11.20
2022-09-12T07:11:36.670Z,11.16
2022-09-12T07:15:11.419Z,11.25
2022-09-12T07:18:52.480Z,11.37
2022-09-12T07:22:24.464Z,11.48
2022-09-12T07:26:01.950Z,11.55
2022-09-12T07:29:56.972Z,11.60
2022-09-12T07:33:39.404Z,11.62
2022-09-12T07:37:01.346Z,11.63
2022-09-12T07:40:37.830Z,11.73
2022-09-12T07:44:14.704Z,11.83
2022-09-12T07:47:54.355Z,12.04
2022-09-12T07:51:30.153Z,12.20
2022-09-12T07:55:06.182Z,12.22
2022-09-12T07:58:43.367Z,12.23
2022-09-12T08:02:38.612Z,12.18
2022-09-12T08:06:08.402Z,12.29
2022-09-12T08:09:37.872Z,12.43
2022-09-12T08:13:14.373Z,12.65
2022-09-12T08:17:09.632Z,12.86
2022-09-12T08:20:31.431Z,12.92
2022-09-12T08:24:08.908Z,12.79
2022-09-12T08:27:46.846Z,12.74
2022-09-12T08:31:25.258Z,12.77
2022-09-12T08:34:58.409Z,12.81
2022-09-12T08:38:37.124Z,12.95
2022-09-12T08:43:02.101Z,13.09
2022-09-12T08:46:34.741Z,13.21
2022-09-12T08:50:10.306Z,13.28
2022-09-12T08:53:57.749Z,13.33
2022-09-12T08:57:19.222Z,13.44
2022-09-12T09:01:23.981Z,13.40
2022-09-12T09:04:52.845Z,13.45
2022-09-12T09:09:01.433Z,13.63
2022-09-12T09:12:33.618Z,13.80
2022-09-12T09:16:17.358Z,13.75
2022-09-12T09:19:51.027Z,13.83
2022-09-12T09:23:28.383Z,13.95
2022-09-12T09:27:02.525Z,14.05
2022-09-12T09:30:49.747Z,14.26
2022-09-12T09:34:33.682Z,14.49
2022-09-12T09:38:27.296Z,14.44
2022-09-12T09:42:05.565Z,14.52
2022-09-12T09:45:29.745Z,14.66
2022-09-12T09:49:26.669Z,14.80
2022-09-12T09:53:47.092Z,14.90
2022-09-12T09:57:34.007Z,14.95
2022-09-12T10:01:06.263Z,15.16
2022-09-12T10:04:56.961Z,15.37
2022-09-12T10:08:38.603Z,15.35
2022-09-12T10:12:19.479Z,15.36
2022-09-12T10:16:04.831Z,15.54
2022-09-12T10:19:36.747Z,15.67
2022-09-12T10:23:29.480Z,15.74
2022-09-12T10:27:05.666Z,15.60
2022-09-12T10:30:29.639Z,15.61
2022-09-12T10:34:16.033Z,15.62
2022-09-12T10:37:52.333Z,15.85
2022-09-12T10:41:22.017Z,15.97
2022-09-12T10:44:57.122Z,16.07
2022-09-12T10:48:33.838Z,16.32
2022-09-12T10:52:17.949Z,16.29
2022-09-12T10:56:12.474Z,16.33
2022-09-12T10:59:41.216Z,16.28
2022-09-12T11:03:25.041Z,16.42
2022-09-12T11:07:02.188Z,16.65
2022-09-12T11:10:44.402Z,16.78
2022-09-12T11:14:44.317Z,16.94
2022-09-12T11:18:23.798Z,16.93
2022-09-12T11:21:57.778Z,17.01
2022-09-12T11:25:45.668Z,17.23
2022-09-12T11:29:26.497Z,17.45
2022-09-12T11:33:21.878Z,17.63
2022-09-12T11:37:17.828Z,17.75
2022-09-12T11:40:44.508Z,17.84
2022-09-12T11:44:42.193Z,17.89
2022-09-12T11:48:36.653Z,18.00
2022-09-12T11:52:23.158Z,18.16
2022-09-12T11:55:53.847Z,18.17
2022-09-12T11:59:59.356Z,17.94
2022-09-12T12:03:33.272Z,17.81
2022-09-12T12:07:06.092Z,17.61
2022-09-12T12:10:35.784Z,17.74
2022-09-12T12:14:42.086Z,17.90
2022-09-12T12:18:29.582Z,17.61
2022-09-12T12:21:52.345Z,17.67
2022-09-12T12:25:56.736Z,18.04
2022-09-12T12:29:21.820Z,18.43
2022-09-12T12:33:16.089Z,18.82
2022-09-12T12:36:41.066Z,19.08
2022-09-12T12:40:23.609Z,19.15
2022-09-12T12:44:44.688Z,19.14
2022-09-12T12:48:25.191Z,18.97
2022-09-12T12:52:01.589Z,18.72
2022-09-12T12:55:33.908Z,18.83
2022-09-12T12:59:04.904Z,18.59
2022-09-12T13:03:10.106Z,18.27
2022-09-12T13:06:37.998Z,18.12
2022-09-12T13:10:29.525Z,18.44
2022-09-12T13:14:46.963Z,18.70
2022-09-12T13:18:25.144Z,18.87
2022-09-12T13:22:09.570Z,18.97
2022-09-12T13:25:59.985Z,19.08
2022-09-12T13:29:40.810Z,19.44
2022-09-12T13:33:32.008Z,19.62
2022-09-12T13:37:04.839Z,19.72
2022-09-12T13:40:55.879Z,19.95
2022-09-12T13:44:45.067Z,20.35
2022-09-12T13:48:25.665Z,20.70
2022-09-12T13:52:00.212Z,20.90
2022-09-12T13:55:48.409Z,20.80
2022-09-12T13:59:12.869Z,20.94
2022-09-12T14:02:48.551Z,21.74
2022-09-12T14:06:25.105Z,22.85
2022-09-12T14:10:01.699Z,23.97
2022-09-12T14:13:57.232Z,24.78
2022-09-12T14:17:26.129Z,25.43
2022-09-12T14:21:33.521Z,25.79
2022-09-12T14:24:56.987Z,26.14
2022-09-12T14:28:33.751Z,25.63
2022-09-12T14:32:22.268Z,24.42
2022-09-12T14:36:07.195Z,24.08
2022-09-12T14:39:48.590Z,23.72
2022-09-12T14:43:30.748Z,22.93
2022-09-12T14:46:53.327Z,22.87
2022-09-12T14:50:51.476Z,22.94
2022-09-12T14:54:35.539Z,22.03
2022-09-12T14:58:19.149Z,21.55
2022-09-12T15:01:41.183Z,22.05
2022-09-12T15:05:21.391Z,22.41
2022-09-12T15:09:13.629Z,22.65
2022-09-12T15:13:04.867Z,22.56
2022-09-12T15:16:45.639Z,21.64
2022-09-12T15:20:26.690Z,20.89
2022-09-12T15:24:08.567Z,20.24
2022-09-12T15:27:53.067Z,19.63
2022-09-12T15:31:34.118Z,19.17
2022-09-12T15:34:56.773Z,18.85
2022-09-12T15:38:52.632Z,18.67
2022-09-12T15:42:16.117Z,18.56
2022-09-12T15:45:51.729Z,18.48
2022-09-12T15:49:28.352Z,18.35
2022-09-12T15:53:05.036Z,18.26
2022-09-12T15:56:41.592Z,18.20
2022-09-12T16:00:19.606Z,18.22
2022-09-12T16:04:23.044Z,18.20
2022-09-12T16:07:45.093Z,18.10
2022-09-12T16:11:40.719Z,17.95
2022-09-12T16:15:24.263Z,17.78
2022-09-12T16:18:47.115Z,17.51
2022-09-12T16:22:22.960Z,17.23
2022-09-12T16:26:18.682Z,17.01
2022-09-12T16:29:40.564Z,16.87
2022-09-12T16:33:37.701Z,16.76
2022-09-12T16:36:59.509Z,16.65
2022-09-12T16:41:02.629Z,16.53
2022-09-12T16:44:43.404Z,16.44
2022-09-12T16:48:24.429Z,16.32
2022-09-12T16:52:05.641Z,16.16
2022-09-12T16:55:31.403Z,15.92
2022-09-12T16:59:05.428Z,15.65
2022-09-12T17:03:00.103Z,15.39
2022-09-12T17:06:42.020Z,15.16
2022-09-12T17:10:04.257Z,14.93
2022-09-12T17:14:03.397Z,14.75
2022-09-12T17:17:25.132Z,14.57
2022-09-12T17:21:01.674Z,14.40
2022-09-12T17:24:39.008Z,14.23
2022-09-12T17:28:15.764Z,14.06
2022-09-12T17:31:52.243Z,13.84
2022-09-12T17:35:29.212Z,13.65
2022-09-12T17:39:05.775Z,13.50
2022-09-12T17:43:01.974Z,13.39
2022-09-12T17:46:26.787Z,13.24
2022-09-12T17:50:27.356Z,13.12
2022-09-12T17:53:43.858Z,13.02
2022-09-12T17:57:39.714Z,12.96
2022-09-12T18:01:30.822Z,12.90
2022-09-12T18:05:12.556Z,12.88
2022-09-12T18:08:34.743Z,12.82
2022-09-12T18:12:11.542Z,12.75
2022-09-12T18:15:48.228Z,12.69
2022-09-12T18:19:25.216Z,12.62
2022-09-12T18:23:01.753Z,12.55
2022-09-12T18:26:39.013Z,12.44
2022-09-12T18:30:34.006Z,12.33
2022-09-12T18:34:18.020Z,12.26
2022-09-12T18:37:58.258Z,12.25
2022-09-12T18:41:23.021Z,12.27
2022-09-12T18:44:56.930Z,12.29
2022-09-12T18:48:55.005Z,12.30
2022-09-12T18:52:19.002Z,12.27
2022-09-12T18:56:01.337Z,12.18
2022-09-12T18:59:30.481Z,12.05
2022-09-12T19:03:26.319Z,11.94
2022-09-12T19:06:48.686Z,11.82
2022-09-12T19:10:25.839Z,11.66
2022-09-12T19:14:02.381Z,11.52
2022-09-12T19:17:38.728Z,11.48
2022-09-12T19:21:18.100Z,11.43
2022-09-12T19:25:13.117Z,11.37
2022-09-12T19:28:54.877Z,11.29
2022-09-12T19:32:16.768Z,11.19
2022-09-12T19:35:53.924Z,11.09
2022-09-12T19:39:49.373Z,11.03
2022-09-12T19:43:12.118Z,11.04
2022-09-12T19:46:48.337Z,11.07
2022-09-12T19:50:25.422Z,11.09
2022-09-12T19:54:20.697Z,11.12
2022-09-12T19:57:43.088Z,11.17
2022-09-12T20:01:30.007Z,11.17
2022-09-12T20:04:56.252Z,11.12
2022-09-12T20:08:34.000Z,11.05
2022-09-12T20:12:11.050Z,10.95
2022-09-12T20:15:46.312Z,10.82
2022-09-12T20:19:42.022Z,10.72
2022-09-12T20:23:24.823Z,10.67
2022-09-12T20:27:05.730Z,10.58
2022-09-12T20:30:46.930Z,10.51
2022-09-12T20:34:27.785Z,10.48
2022-09-12T20:38:08.581Z,10.46
2022-09-12T20:41:49.256Z,10.43
2022-09-12T20:45:29.722Z,10.39
2022-09-12T20:49:10.641Z,10.33
2022-09-12T20:52:32.615Z,10.24
2022-09-12T20:56:09.350Z,10.19
2022-09-12T20:59:46.237Z,10.16
2022-09-12T21:03:23.330Z,10.14
2022-09-12T21:06:59.828Z,10.13
2022-09-12T21:10:36.297Z,10.11
2022-09-12T21:14:13.367Z,10.08
2022-09-12T21:17:50.292Z,10.05
2022-09-12T21:21:27.074Z,10.05
2022-09-12T21:25:03.729Z,10.07
2022-09-12T21:28:40.406Z,10.11
2022-09-12T21:32:17.722Z,10.20
2022-09-12T21:35:54.173Z,10.29
2022-09-12T21:39:30.468Z,10.35
2022-09-12T21:43:12.363Z,10.37
2022-09-12T21:46:44.151Z,10.36
2022-09-12T21:50:21.273Z,10.33
2022-09-12T21:54:16.641Z,10.30
2022-09-12T21:57:38.901Z,10.27
2022-09-12T22:01:15.251Z,10.25
2022-09-12T22:04:52.234Z,10.31
2022-09-12T22:08:47.880Z,10.34
2022-09-12T22:12:09.457Z,10.29
2022-09-12T22:15:50.861Z,10.16
2022-09-12T22:19:23.563Z,10.02
2022-09-12T22:23:22.414Z,9.92
2022-09-12T22:26:46.605Z,9.84
2022-09-12T22:30:23.581Z,9.79
2022-09-12T22:34:00.172Z,9.87
2022-09-12T22:37:36.999Z,9.89
2022-09-12T22:41:14.323Z,9.82
2022-09-12T22:44:50.531Z,9.68
2022-09-12T22:48:27.803Z,9.55
2022-09-12T22:52:04.327Z,9.41
2022-09-12T22:56:00.567Z,9.32
2022-09-12T22:59:22.463Z,9.27
2022-09-12T23:03:01.980Z,9.21
2022-09-12T23:06:37.142Z,9.17
2022-09-12T23:10:35.815Z,9.10
2022-09-12T23:14:16.560Z,9.03
2022-09-12T23:17:59.239Z,8.96
2022-09-12T23:21:40.367Z,8.88
2022-09-12T23:25:03.370Z,8.85
2022-09-12T23:29:00.478Z,8.84
2022-09-12T23:32:41.682Z,8.87
2022-09-12T23:36:11.408Z,8.96
2022-09-12T23:39:40.305Z,8.97
2022-09-12T23:43:17.497Z,8.94
2022-09-12T23:46:54.197Z,8.89
2022-09-12T23:50:30.414Z,8.83
2022-09-12T23:54:26.497Z,8.75
2022-09-12T23:58:08.301Z,8.68
